createdAt,value
2018-07-26T00:00:48.004Z,83.81
2018-07-26T00:01:47.990Z,83.72
2018-07-26T00:02:47.981Z,83.72
2018-07-26T00:03:47.987Z,84.78
2018-07-26T00:04:47.968Z,85.36
2018-07-26T00:05:47.958Z,85.36
2018-07-26T00:06:47.938Z,85.26
2018-07-26T00:07:47.932Z,84.68
2018-07-26T00:08:47.916Z,84.58
2018-07-26T00:09:47.910Z,83.95
2018-07-26T00:10:47.896Z,83.47
2018-07-26T00:11:47.892Z,83.56
2018-07-26T00:12:47.877Z,83.47
2018-07-26T00:13:47.872Z,82.50
2018-07-26T00:14:47.854Z,81.98
2018-07-26T00:15:47.846Z,82.84
2018-07-26T00:16:47.835Z,82.84
2018-07-26T00:17:47.825Z,83.91
2018-07-26T00:18:47.810Z,84.78
2018-07-26T00:19:47.803Z,84.64
2018-07-26T00:20:47.794Z,85.31
2018-07-26T00:21:47.779Z,86.08
2018-07-26T00:22:47.773Z,86.66
2018-07-26T00:23:47.756Z,87.34
2018-07-26T00:24:47.743Z,87.44
2018-07-26T00:25:47.736Z,88.31
2018-07-26T00:26:47.723Z,88.50
2018-07-26T00:27:47.713Z,88.89
2018-07-26T00:28:47.705Z,89.07
2018-07-26T00:29:47.689Z,88.89
2018-07-26T00:30:47.685Z,88.79
2018-07-26T00:31:47.675Z,88.79
2018-07-26T00:32:47.660Z,88.21
2018-07-26T00:33:47.647Z,87.48
2018-07-26T00:34:47.638Z,87.09
2018-07-26T00:35:47.626Z,86.13
2018-07-26T00:36:47.618Z,86.32
2018-07-26T00:37:47.604Z,86.22
2018-07-26T00:38:47.593Z,86.03
2018-07-26T00:39:47.585Z,85.45
2018-07-26T00:40:47.576Z,85.45
2018-07-26T00:41:47.563Z,85.74
2018-07-26T00:42:47.551Z,85.16
2018-07-26T00:43:47.541Z,84.48
2018-07-26T00:44:47.529Z,84.78
2018-07-26T00:45:47.517Z,84.20
2018-07-26T00:46:47.511Z,84.10
2018-07-26T00:47:47.499Z,83.91
2018-07-26T00:48:47.495Z,83.95
2018-07-26T00:49:47.479Z,84.05
2018-07-26T00:50:47.464Z,83.27
2018-07-26T00:51:47.453Z,83.47
2018-07-26T00:52:47.444Z,83.47
2018-07-26T00:53:47.434Z,82.89
2018-07-26T00:54:47.424Z,83.37
2018-07-26T00:55:47.417Z,83.37
2018-07-26T00:56:47.402Z,83.66
2018-07-26T00:57:47.389Z,83.37
2018-07-26T00:58:47.382Z,83.95
2018-07-26T00:59:47.371Z,83.47
2018-07-26T01:00:47.357Z,83.08
2018-07-26T01:01:47.353Z,82.98
2018-07-26T01:02:47.334Z,83.56
2018-07-26T01:03:47.323Z,82.98
2018-07-26T01:04:47.313Z,82.69
2018-07-26T01:05:47.302Z,83.47
2018-07-26T01:06:47.289Z,82.79
2018-07-26T01:07:47.280Z,83.95
2018-07-26T01:08:47.272Z,84.05
2018-07-26T01:09:47.260Z,83.91
2018-07-26T01:10:47.250Z,84.20
2018-07-26T01:11:47.240Z,84.30
2018-07-26T01:12:47.231Z,84.20
2018-07-26T01:13:47.218Z,84.48
2018-07-26T01:14:47.204Z,84.97
2018-07-26T01:15:47.194Z,84.78
2018-07-26T01:16:47.182Z,84.88
2018-07-26T01:17:47.178Z,84.30
2018-07-26T01:18:47.166Z,85.06
2018-07-26T01:19:47.149Z,85.16
2018-07-26T01:20:47.140Z,85.36
2018-07-26T01:21:47.127Z,84.88
2018-07-26T01:22:47.117Z,84.78
2018-07-26T01:23:47.105Z,84.88
2018-07-26T01:24:47.103Z,85.16
2018-07-26T01:25:47.084Z,85.16
2018-07-26T01:26:47.072Z,86.13
2018-07-26T01:27:47.064Z,85.94
2018-07-26T01:28:47.054Z,85.16
2018-07-26T01:29:47.046Z,84.78
2018-07-26T01:30:47.031Z,85.16
2018-07-26T01:31:47.031Z,85.26
2018-07-26T01:32:47.013Z,85.36
2018-07-26T01:33:47.001Z,85.26
2018-07-26T01:34:46.987Z,85.55
2018-07-26T01:35:46.976Z,86.03
2018-07-26T01:36:46.966Z,86.22
2018-07-26T01:37:46.954Z,86.36
2018-07-26T01:38:46.951Z,86.03
2018-07-26T01:39:46.936Z,86.03
2018-07-26T01:40:46.921Z,86.46
2018-07-26T01:41:46.910Z,85.40
2018-07-26T01:42:46.903Z,85.59
2018-07-26T01:43:46.890Z,85.40
2018-07-26T01:44:46.880Z,85.21
2018-07-26T01:45:46.867Z,85.11
2018-07-26T01:46:46.860Z,85.01
2018-07-26T01:47:46.848Z,85.30
2018-07-26T01:48:46.836Z,85.30
2018-07-26T01:49:46.824Z,85.40
2018-07-26T01:50:46.814Z,85.40
2018-07-26T01:51:46.801Z,85.49
2018-07-26T01:52:46.792Z,85.11
2018-07-26T01:53:46.782Z,85.16
2018-07-26T01:54:46.770Z,85.36
2018-07-26T01:55:46.760Z,85.55
2018-07-26T01:56:46.749Z,85.26
2018-07-26T01:57:46.736Z,85.84
2018-07-26T01:58:46.727Z,86.03
2018-07-26T01:59:46.713Z,86.03
2018-07-26T02:00:46.704Z,85.26
2018-07-26T02:01:46.715Z,85.55
2018-07-26T02:02:46.684Z,85.36
2018-07-26T02:03:46.672Z,85.26
2018-07-26T02:04:46.668Z,85.16
2018-07-26T02:05:46.650Z,85.26
2018-07-26T02:06:46.637Z,84.97
2018-07-26T02:07:46.629Z,84.78
2018-07-26T02:08:46.619Z,84.33
2018-07-26T02:09:46.605Z,84.33
2018-07-26T02:10:46.593Z,84.58
2018-07-26T02:11:46.587Z,84.88
2018-07-26T02:12:46.573Z,84.97
2018-07-26T02:13:46.561Z,84.88
2018-07-26T02:14:46.552Z,84.48
2018-07-26T02:15:46.542Z,85.16
2018-07-26T02:16:46.531Z,85.16
2018-07-26T02:17:46.519Z,85.55
2018-07-26T02:18:46.507Z,85.55
2018-07-26T02:19:46.497Z,85.84
2018-07-26T02:20:46.487Z,86.03
2018-07-26T02:21:46.475Z,86.32
2018-07-26T02:22:46.473Z,86.38
2018-07-26T02:23:46.456Z,86.18
2018-07-26T02:24:46.442Z,86.18
2018-07-26T02:25:46.433Z,86.76
2018-07-26T02:26:46.421Z,87.44
2018-07-26T02:27:46.413Z,87.53
2018-07-26T02:28:46.403Z,87.92
2018-07-26T02:29:46.386Z,88.55
2018-07-26T02:30:46.376Z,90.29
2018-07-26T02:31:46.375Z,90.96
2018-07-26T02:32:46.354Z,91.93
2018-07-26T02:33:46.343Z,92.17
2018-07-26T02:34:46.341Z,92.56
2018-07-26T02:35:46.320Z,92.85
2018-07-26T02:36:46.336Z,92.99
2018-07-26T02:37:46.303Z,93.43
2018-07-26T02:38:46.289Z,92.56
2018-07-26T02:39:46.280Z,93.18
2018-07-26T02:40:46.266Z,92.99
2018-07-26T02:41:46.253Z,93.18
2018-07-26T02:42:46.247Z,92.22
2018-07-26T02:43:46.232Z,91.74
2018-07-26T02:44:46.221Z,91.93
2018-07-26T02:45:46.210Z,91.93
2018-07-26T02:46:46.198Z,91.64
2018-07-26T02:47:46.188Z,91.93
2018-07-26T02:48:46.181Z,91.74
2018-07-26T02:49:46.164Z,91.83
2018-07-26T02:50:46.155Z,91.54
2018-07-26T02:51:46.146Z,91.54
2018-07-26T02:52:46.136Z,91.93
2018-07-26T02:53:46.119Z,90.58
2018-07-26T02:54:46.112Z,91.06
2018-07-26T02:55:46.109Z,91.20
2018-07-26T02:56:46.088Z,90.72
2018-07-26T02:57:46.082Z,90.33
2018-07-26T02:58:46.065Z,89.07
2018-07-26T02:59:46.052Z,88.50
2018-07-26T03:00:46.051Z,88.79
2018-07-26T03:01:46.030Z,88.40
2018-07-26T03:02:46.021Z,88.79
2018-07-26T03:03:46.010Z,89.47
2018-07-26T03:04:46.003Z,89.32
2018-07-26T03:05:45.989Z,90.00
2018-07-26T03:06:45.976Z,89.90
2018-07-26T03:07:45.974Z,89.56
2018-07-26T03:08:45.957Z,88.98
2018-07-26T03:09:45.942Z,89.07
2018-07-26T03:10:45.934Z,89.17
2018-07-26T03:11:45.921Z,88.89
2018-07-26T03:12:45.912Z,88.69
2018-07-26T03:13:45.896Z,88.40
2018-07-26T03:14:45.887Z,88.21
2018-07-26T03:15:45.885Z,88.15
2018-07-26T03:16:45.866Z,87.92
2018-07-26T03:17:45.852Z,87.53
2018-07-26T03:18:45.842Z,86.86
2018-07-26T03:19:45.833Z,85.99
2018-07-26T03:20:45.834Z,87.01
2018-07-26T03:21:45.808Z,88.93
2018-07-26T03:22:45.796Z,89.95
2018-07-26T03:23:45.786Z,91.02
2018-07-26T03:24:45.777Z,92.27
2018-07-26T03:25:45.767Z,92.65
2018-07-26T03:26:45.765Z,93.23
2018-07-26T03:27:45.741Z,93.91
2018-07-26T03:28:45.731Z,94.78
2018-07-26T03:29:45.720Z,94.00
2018-07-26T03:30:45.706Z,93.13
2018-07-26T03:31:45.696Z,92.75
2018-07-26T03:32:45.684Z,93.04
2018-07-26T03:33:45.674Z,92.32
2018-07-26T03:34:45.662Z,92.32
2018-07-26T03:35:45.651Z,91.93
2018-07-26T03:36:45.639Z,91.74
2018-07-26T03:37:45.631Z,91.54
2018-07-26T03:38:45.616Z,90.87
2018-07-26T03:39:45.605Z,91.68
2018-07-26T03:40:45.594Z,90.67
2018-07-26T03:41:45.581Z,90.29
2018-07-26T03:42:45.572Z,89.90
2018-07-26T03:43:45.560Z,89.13
2018-07-26T03:44:45.550Z,89.90
2018-07-26T03:45:45.539Z,89.90
2018-07-26T03:46:45.527Z,90.29
2018-07-26T03:47:45.514Z,90.77
2018-07-26T03:48:45.505Z,91.06
2018-07-26T03:49:45.494Z,90.87
2018-07-26T03:50:45.483Z,90.87
2018-07-26T03:51:45.474Z,90.87
2018-07-26T03:52:45.465Z,91.35
2018-07-26T03:53:45.448Z,91.93
2018-07-26T03:54:45.438Z,91.93
2018-07-26T03:55:45.441Z,91.74
2018-07-26T03:56:45.415Z,91.83
2018-07-26T03:57:45.415Z,92.02
2018-07-26T03:58:45.391Z,91.83
2018-07-26T03:59:45.379Z,91.54
2018-07-26T04:00:45.371Z,91.93
2018-07-26T04:01:45.356Z,92.32
2018-07-26T04:02:45.344Z,91.74
2018-07-26T04:03:45.336Z,92.60
2018-07-26T04:04:45.321Z,92.12
2018-07-26T04:05:45.314Z,92.89
2018-07-26T04:06:45.296Z,92.22
2018-07-26T04:07:45.287Z,92.12
2018-07-26T04:08:45.276Z,91.83
2018-07-26T04:09:45.264Z,91.83
2018-07-26T04:10:45.254Z,91.54
2018-07-26T04:11:45.247Z,91.64
2018-07-26T04:12:45.236Z,91.83
2018-07-26T04:13:45.218Z,91.74
2018-07-26T04:14:45.207Z,91.54
2018-07-26T04:15:45.197Z,91.74
2018-07-26T04:16:45.187Z,91.25
2018-07-26T04:17:45.175Z,91.93
2018-07-26T04:18:45.166Z,92.12
2018-07-26T04:19:45.152Z,91.35
2018-07-26T04:20:45.141Z,91.49
2018-07-26T04:21:45.131Z,91.88
2018-07-26T04:22:45.120Z,91.35
2018-07-26T04:23:45.107Z,90.91
2018-07-26T04:24:45.099Z,90.81
2018-07-26T04:25:45.084Z,91.78
2018-07-26T04:26:45.084Z,91.30
2018-07-26T04:27:45.061Z,91.30
2018-07-26T04:28:45.052Z,90.53
2018-07-26T04:29:45.039Z,90.53
2018-07-26T04:30:45.035Z,89.99
2018-07-26T04:31:45.102Z,89.47
2018-07-26T04:32:45.006Z,89.41
2018-07-26T04:33:44.996Z,89.61
2018-07-26T04:34:44.980Z,89.51
2018-07-26T04:35:44.970Z,89.47
2018-07-26T04:36:44.960Z,89.37
2018-07-26T04:37:44.952Z,88.79
2018-07-26T04:38:44.936Z,88.45
2018-07-26T04:39:44.924Z,88.93
2018-07-26T04:40:44.915Z,89.22
2018-07-26T04:41:44.911Z,89.22
2018-07-26T04:42:44.892Z,89.37
2018-07-26T04:43:44.882Z,88.89
2018-07-26T04:44:44.868Z,89.65
2018-07-26T04:45:44.856Z,89.27
2018-07-26T04:46:44.846Z,89.70
2018-07-26T04:47:44.838Z,90.33
2018-07-26T04:48:44.824Z,90.33
2018-07-26T04:49:44.811Z,89.70
2018-07-26T04:50:44.802Z,89.51
2018-07-26T04:51:44.791Z,90.47
2018-07-26T04:52:44.792Z,90.86
2018-07-26T04:53:44.767Z,90.57
2018-07-26T04:54:44.764Z,89.61
2018-07-26T04:55:44.752Z,89.70
2018-07-26T04:56:44.733Z,90.37
2018-07-26T04:57:44.722Z,90.47
2018-07-26T04:58:44.723Z,90.37
2018-07-26T04:59:44.704Z,89.51
2018-07-26T05:00:44.689Z,88.83
2018-07-26T05:01:44.676Z,89.12
2018-07-26T05:02:44.665Z,88.78
2018-07-26T05:03:44.655Z,88.10
2018-07-26T05:04:44.644Z,87.81
2018-07-26T05:05:44.637Z,88.39
2018-07-26T05:06:44.630Z,87.71
2018-07-26T05:07:44.609Z,87.52
2018-07-26T05:08:44.598Z,87.33
2018-07-26T05:09:44.588Z,87.13
2018-07-26T05:10:44.576Z,86.60
2018-07-26T05:11:44.568Z,87.27
2018-07-26T05:12:44.555Z,87.76
2018-07-26T05:13:44.544Z,87.37
2018-07-26T05:14:44.536Z,86.79
2018-07-26T05:15:44.521Z,86.60
2018-07-26T05:16:44.511Z,86.41
2018-07-26T05:17:44.502Z,85.77
2018-07-26T05:18:44.495Z,85.29
2018-07-26T05:19:44.475Z,84.77
2018-07-26T05:20:44.465Z,84.71
2018-07-26T05:21:44.455Z,84.80
2018-07-26T05:22:44.445Z,84.90
2018-07-26T05:23:44.432Z,84.22
2018-07-26T05:24:44.422Z,83.45
2018-07-26T05:25:44.409Z,83.16
2018-07-26T05:26:44.400Z,83.74
2018-07-26T05:27:44.437Z,83.36
2018-07-26T05:28:44.382Z,84.03
2018-07-26T05:29:44.397Z,84.03
2018-07-26T05:30:44.360Z,84.22
2018-07-26T05:31:44.344Z,83.94
2018-07-26T05:32:44.337Z,83.94
2018-07-26T05:33:44.324Z,83.45
2018-07-26T05:34:44.309Z,83.94
2018-07-26T05:35:44.299Z,83.74
2018-07-26T05:36:44.292Z,83.94
2018-07-26T05:37:44.315Z,83.84
2018-07-26T05:38:44.265Z,83.64
2018-07-26T05:39:44.257Z,84.22
2018-07-26T05:40:44.248Z,83.64
2018-07-26T05:41:44.234Z,83.64
2018-07-26T05:42:44.223Z,84.03
2018-07-26T05:43:44.211Z,83.94
2018-07-26T05:44:44.200Z,83.84
2018-07-26T05:45:44.189Z,83.78
2018-07-26T05:46:44.179Z,83.78
2018-07-26T05:47:44.167Z,83.20
2018-07-26T05:48:44.160Z,83.20
2018-07-26T05:49:44.153Z,83.11
2018-07-26T05:50:44.146Z,82.78
2018-07-26T05:51:44.131Z,83.45
2018-07-26T05:52:44.152Z,83.20
2018-07-26T05:53:44.103Z,83.59
2018-07-26T05:54:44.098Z,83.01
2018-07-26T05:55:44.082Z,83.55
2018-07-26T05:56:44.070Z,83.59
2018-07-26T05:57:44.059Z,82.91
2018-07-26T05:58:44.053Z,82.91
2018-07-26T05:59:44.042Z,82.53
2018-07-26T06:00:44.029Z,82.04
2018-07-26T06:01:44.014Z,83.11
2018-07-26T06:02:44.011Z,82.04
2018-07-26T06:03:44.003Z,82.43
2018-07-26T06:04:43.983Z,82.14
2018-07-26T06:05:43.973Z,82.33
2018-07-26T06:06:43.961Z,82.14
2018-07-26T06:07:43.953Z,81.65
2018-07-26T06:08:43.944Z,82.04
2018-07-26T06:09:44.001Z,81.37
2018-07-26T06:10:43.922Z,81.65
2018-07-26T06:11:43.907Z,81.37
2018-07-26T06:12:43.902Z,81.65
2018-07-26T06:13:43.895Z,81.37
2018-07-26T06:14:43.874Z,81.21
2018-07-26T06:15:43.863Z,81.56
2018-07-26T06:16:43.855Z,81.40
2018-07-26T06:17:43.848Z,81.27
2018-07-26T06:18:43.832Z,81.27
2018-07-26T06:19:43.822Z,81.46
2018-07-26T06:20:43.857Z,81.27
2018-07-26T06:21:43.798Z,81.56
2018-07-26T06:22:43.788Z,81.85
2018-07-26T06:23:43.777Z,81.75
2018-07-26T06:24:43.820Z,81.07
2018-07-26T06:25:43.757Z,81.70
2018-07-26T06:26:43.744Z,81.60
2018-07-26T06:27:43.739Z,81.12
2018-07-26T06:28:43.724Z,81.30
2018-07-26T06:29:43.712Z,80.82
2018-07-26T06:30:43.706Z,80.73
2018-07-26T06:31:43.695Z,80.63
2018-07-26T06:32:43.684Z,80.44
2018-07-26T06:33:43.697Z,80.54
2018-07-26T06:34:43.662Z,80.34
2018-07-26T06:35:43.651Z,79.85
2018-07-26T06:36:43.638Z,80.05
2018-07-26T06:37:43.628Z,80.54
2018-07-26T06:38:43.615Z,79.80
2018-07-26T06:39:43.606Z,79.99
2018-07-26T06:40:43.597Z,79.80
2018-07-26T06:41:43.591Z,79.99
2018-07-26T06:42:43.577Z,80.47
2018-07-26T06:43:43.563Z,79.90
2018-07-26T06:44:43.555Z,79.60
2018-07-26T06:45:43.543Z,78.92
2018-07-26T06:46:43.535Z,78.44
2018-07-26T06:47:43.525Z,78.54
2018-07-26T06:48:43.516Z,78.44
2018-07-26T06:49:43.499Z,78.34
2018-07-26T06:50:43.489Z,78.83
2018-07-26T06:51:43.477Z,78.54
2018-07-26T06:52:43.470Z,77.76
2018-07-26T06:53:43.456Z,78.64
2018-07-26T06:54:43.450Z,78.92
2018-07-26T06:55:43.436Z,78.48
2018-07-26T06:56:43.429Z,77.96
2018-07-26T06:57:43.418Z,78.09
2018-07-26T06:58:43.408Z,77.70
2018-07-26T06:59:43.396Z,77.51
2018-07-26T07:00:43.396Z,77.32
2018-07-26T07:01:43.383Z,77.12
2018-07-26T07:02:43.365Z,77.61
2018-07-26T07:03:43.352Z,78.19
2018-07-26T07:04:43.343Z,77.51
2018-07-26T07:05:43.334Z,77.22
2018-07-26T07:06:43.321Z,76.54
2018-07-26T07:07:43.314Z,76.54
2018-07-26T07:08:43.314Z,76.64
2018-07-26T07:09:43.289Z,77.32
2018-07-26T07:10:43.283Z,76.74
2018-07-26T07:11:43.270Z,75.96
2018-07-26T07:12:43.260Z,76.54
2018-07-26T07:13:43.248Z,76.58
2018-07-26T07:14:43.238Z,75.81
2018-07-26T07:15:43.231Z,75.90
2018-07-26T07:16:43.218Z,76.00
2018-07-26T07:17:43.210Z,76.19
2018-07-26T07:19:43.192Z,75.23
2018-07-26T07:20:43.179Z,74.93
2018-07-26T07:21:43.174Z,74.58
2018-07-26T07:22:43.167Z,74.77
2018-07-26T07:23:43.148Z,74.68
2018-07-26T07:24:43.135Z,73.61
2018-07-26T07:25:43.128Z,74.10
2018-07-26T07:26:43.117Z,73.61
2018-07-26T07:27:43.165Z,73.13
2018-07-26T07:28:43.097Z,73.22
2018-07-26T07:29:43.088Z,72.83
2018-07-26T07:30:43.076Z,72.45
2018-07-26T07:31:43.070Z,73.22
2018-07-26T07:32:43.057Z,73.07
2018-07-26T07:33:43.043Z,72.87
2018-07-26T07:34:43.033Z,72.49
2018-07-26T07:35:43.028Z,72.58
2018-07-26T07:36:43.018Z,72.58
2018-07-26T07:37:43.025Z,72.97
2018-07-26T07:38:42.996Z,72.97
2018-07-26T07:39:42.988Z,72.52
2018-07-26T07:40:42.971Z,72.81
2018-07-26T07:41:42.994Z,72.52
2018-07-26T07:42:42.955Z,72.42
2018-07-26T07:43:42.945Z,72.52
2018-07-26T07:44:42.931Z,71.64
2018-07-26T07:45:42.921Z,71.36
2018-07-26T07:46:42.957Z,72.03
2018-07-26T07:47:42.969Z,70.87
2018-07-26T07:48:42.896Z,70.42
2018-07-26T07:49:42.888Z,70.12
2018-07-26T07:50:42.869Z,69.74
2018-07-26T07:51:42.861Z,70.03
2018-07-26T07:52:42.852Z,69.29
2018-07-26T07:53:42.845Z,68.70
2018-07-26T07:54:42.831Z,68.32
2018-07-26T07:55:42.821Z,68.41
2018-07-26T07:56:42.821Z,68.22
2018-07-26T07:57:42.805Z,68.02
2018-07-26T07:58:42.792Z,68.22
2018-07-26T07:59:42.833Z,67.24
2018-07-26T08:00:42.774Z,68.02
2018-07-26T08:01:42.763Z,67.76
2018-07-26T08:02:42.754Z,66.50
2018-07-26T08:03:42.744Z,65.14
2018-07-26T08:04:42.734Z,65.66
2018-07-26T08:05:42.725Z,64.20
2018-07-26T08:06:42.737Z,63.42
2018-07-26T08:07:42.712Z,63.13
2018-07-26T08:08:42.696Z,62.35
2018-07-26T08:09:42.685Z,62.29
2018-07-26T08:10:42.677Z,60.82
2018-07-26T08:11:42.667Z,62.48
2018-07-26T08:12:42.764Z,62.38
2018-07-26T08:13:42.648Z,62.19
2018-07-26T08:14:42.638Z,62.09
2018-07-26T08:15:42.633Z,62.48
2018-07-26T08:16:42.628Z,62.38
2018-07-26T08:17:42.609Z,61.63
2018-07-26T08:18:42.600Z,61.93
2018-07-26T08:19:42.595Z,62.70
2018-07-26T08:20:42.581Z,62.32
2018-07-26T08:21:42.577Z,60.66
2018-07-26T08:22:42.562Z,60.95
2018-07-26T08:23:42.556Z,61.44
2018-07-26T08:24:42.545Z,60.66
2018-07-26T08:25:42.534Z,61.57
2018-07-26T08:26:42.526Z,60.39
2018-07-26T08:27:42.525Z,60.10
2018-07-26T08:28:42.508Z,59.52
2018-07-26T08:29:42.498Z,59.13
2018-07-26T08:30:42.488Z,58.87
2018-07-26T08:31:42.480Z,57.79
2018-07-26T08:32:42.473Z,57.01
2018-07-26T08:33:42.459Z,57.60
2018-07-26T08:34:42.467Z,57.99
2018-07-26T08:36:43.840Z,57.92
2018-07-26T08:37:42.432Z,57.34
2018-07-26T08:38:42.425Z,58.02
2018-07-26T08:39:42.410Z,58.04
2018-07-26T08:40:42.403Z,57.07
2018-07-26T08:41:42.388Z,56.68
2018-07-26T08:42:42.383Z,56.02
2018-07-26T08:43:42.387Z,55.83
2018-07-26T08:44:42.370Z,55.93
2018-07-26T08:45:42.360Z,56.02
2018-07-26T08:46:42.347Z,56.12
2018-07-26T08:47:42.336Z,56.41
2018-07-26T08:48:42.332Z,56.02
2018-07-26T08:49:42.322Z,56.12
2018-07-26T08:50:42.311Z,54.85
2018-07-26T08:51:42.303Z,54.27
2018-07-26T08:52:42.291Z,54.00
2018-07-26T08:53:42.285Z,54.00
2018-07-26T08:54:42.324Z,53.22
2018-07-26T08:55:42.267Z,53.05
2018-07-26T08:56:42.260Z,53.05
2018-07-26T08:57:42.250Z,53.05
2018-07-26T08:58:42.242Z,53.44
2018-07-26T08:59:42.239Z,53.54
2018-07-26T09:00:42.224Z,53.93
2018-07-26T09:01:42.223Z,53.15
2018-07-26T09:02:42.230Z,52.59
2018-07-26T09:03:42.201Z,51.78
2018-07-26T09:04:42.197Z,49.65
2018-07-26T09:05:42.187Z,50.83
2018-07-26T09:06:42.174Z,49.95
2018-07-26T09:07:42.167Z,49.75
2018-07-26T09:08:42.159Z,48.87
2018-07-26T09:09:42.159Z,49.16
2018-07-26T09:10:42.149Z,49.65
2018-07-26T09:11:42.134Z,49.75
2018-07-26T09:12:42.126Z,49.75
2018-07-26T09:13:42.177Z,49.36
2018-07-26T09:14:42.109Z,48.28
2018-07-26T09:15:42.102Z,46.36
2018-07-26T09:16:42.095Z,46.94
2018-07-26T09:17:42.084Z,46.26
2018-07-26T09:18:42.079Z,46.55
2018-07-26T09:19:42.146Z,44.49
2018-07-26T09:20:42.070Z,43.84
2018-07-26T09:21:42.061Z,43.24
2018-07-26T09:22:42.049Z,42.83
2018-07-26T09:23:42.039Z,43.93
2018-07-26T09:24:42.037Z,43.05
2018-07-26T09:25:42.022Z,42.36
2018-07-26T09:26:42.013Z,42.46
2018-07-26T09:27:42.004Z,41.97
2018-07-26T09:28:42.013Z,41.19
2018-07-26T09:30:49.573Z,41.89
2018-07-26T09:31:49.566Z,42.48
2018-07-26T09:32:49.561Z,42.29
2018-07-26T09:33:49.547Z,42.58
2018-07-26T09:34:49.550Z,42.29
2018-07-26T09:35:49.537Z,41.23
2018-07-26T09:36:49.524Z,40.45
2018-07-26T09:37:49.516Z,40.25
2018-07-26T09:38:49.515Z,38.59
2018-07-26T09:39:49.500Z,38.20
2018-07-26T09:47:02.106Z,36.74
2018-07-26T09:48:02.102Z,37.33
2018-07-26T09:49:02.089Z,37.33
2018-07-26T10:05:24.055Z,34.41
2018-07-26T10:06:24.046Z,33.34
2018-07-26T10:07:24.034Z,33.74
2018-07-26T10:08:24.017Z,34.01
2018-07-26T10:09:24.007Z,34.52
2018-07-26T10:10:23.996Z,33.74
2018-07-26T10:11:23.994Z,34.62
2018-07-26T10:12:23.979Z,33.74
2018-07-26T10:13:23.971Z,33.64
2018-07-26T10:14:23.958Z,33.94
2018-07-26T10:15:23.952Z,33.54
2018-07-26T10:16:23.987Z,33.34
2018-07-26T10:17:23.935Z,32.66
2018-07-26T10:18:23.924Z,31.50
2018-07-26T10:19:23.916Z,30.62
2018-07-26T10:20:23.904Z,31.10
2018-07-26T10:21:23.898Z,31.48
2018-07-26T10:22:23.887Z,31.77
2018-07-26T10:23:23.876Z,31.87
2018-07-26T10:24:23.872Z,32.48
2018-07-26T10:25:23.866Z,32.17
2018-07-26T10:26:23.854Z,32.48
2018-07-26T10:27:23.845Z,32.07
2018-07-26T10:28:23.835Z,31.77
2018-07-26T10:29:23.831Z,31.68
2018-07-26T10:30:23.831Z,31.89
2018-07-26T10:31:23.812Z,31.38
2018-07-26T10:32:23.804Z,32.38
2018-07-26T10:33:23.795Z,32.09
2018-07-26T10:34:23.786Z,31.70
2018-07-26T10:35:23.787Z,31.40
2018-07-26T10:36:23.781Z,31.70
2018-07-26T10:37:23.769Z,31.81
2018-07-26T10:38:23.771Z,32.28
2018-07-26T10:39:23.759Z,32.78
2018-07-26T10:40:23.747Z,32.48
2018-07-26T10:41:23.753Z,32.37
2018-07-26T10:42:23.736Z,32.27
2018-07-26T10:43:23.727Z,33.15
2018-07-26T10:44:23.720Z,32.66
2018-07-26T10:45:23.718Z,32.56
2018-07-26T10:46:23.710Z,32.86
2018-07-26T10:47:23.702Z,32.46
2018-07-26T10:48:23.691Z,32.56
2018-07-26T10:49:23.683Z,32.28
2018-07-26T10:50:23.693Z,32.48
2018-07-26T10:51:23.672Z,32.28
2018-07-26T10:52:23.671Z,32.09
2018-07-26T10:53:23.659Z,31.60
2018-07-26T10:54:23.651Z,31.60
2018-07-26T10:55:23.656Z,31.81
2018-07-26T10:56:23.646Z,31.90
2018-07-26T10:57:23.630Z,31.30
2018-07-26T10:58:23.628Z,32.18
2018-07-26T10:59:23.621Z,32.30
2018-07-26T11:00:23.632Z,31.81
2018-07-26T11:01:23.603Z,31.71
2018-07-26T11:02:23.601Z,32.10
2018-07-26T11:03:23.591Z,32.40
2018-07-26T11:04:23.584Z,32.50
2018-07-26T11:05:23.586Z,32.20
2018-07-26T11:06:23.572Z,32.10
2018-07-26T11:07:23.564Z,32.21
2018-07-26T11:08:23.561Z,32.31
2018-07-26T11:09:23.556Z,32.21
2018-07-26T11:10:23.545Z,31.82
2018-07-26T11:11:23.538Z,31.82
2018-07-26T11:12:23.533Z,31.43
2018-07-26T11:13:23.528Z,30.94
2018-07-26T11:14:23.539Z,31.53
2018-07-26T11:15:23.516Z,32.12
2018-07-26T11:16:23.507Z,32.12
2018-07-26T11:17:23.502Z,32.21
2018-07-26T11:18:23.497Z,31.82
2018-07-26T11:19:23.492Z,32.12
2018-07-26T11:20:23.485Z,32.31
2018-07-26T11:21:23.483Z,31.90
2018-07-26T11:22:23.468Z,32.21
2018-07-26T11:23:23.460Z,32.02
2018-07-26T11:24:23.459Z,31.13
2018-07-26T11:25:23.453Z,30.94
2018-07-26T11:26:23.450Z,30.94
2018-07-26T11:27:23.452Z,31.02
2018-07-26T11:28:23.429Z,30.53
2018-07-26T11:29:23.437Z,30.93
2018-07-26T11:30:23.420Z,30.43
2018-07-26T11:31:23.412Z,30.53
2018-07-26T11:32:23.437Z,30.93
2018-07-26T11:33:23.407Z,31.13
2018-07-26T11:34:23.396Z,31.33
2018-07-26T11:35:23.386Z,31.12
2018-07-26T11:36:23.377Z,31.61
2018-07-26T11:37:23.378Z,31.61
2018-07-26T11:38:23.369Z,32.31
2018-07-26T11:39:23.366Z,31.92
2018-07-26T11:40:23.366Z,31.13
2018-07-26T11:41:23.408Z,31.23
2018-07-26T11:42:23.353Z,31.43
2018-07-26T11:43:23.336Z,31.33
2018-07-26T11:44:23.342Z,30.65
2018-07-26T11:45:23.334Z,31.04
2018-07-26T11:46:23.317Z,30.05
2018-07-26T11:47:23.311Z,30.65
2018-07-26T11:48:23.303Z,31.13
2018-07-26T11:49:23.301Z,30.15
2018-07-26T11:50:23.294Z,30.46
2018-07-26T11:51:23.345Z,30.65
2018-07-26T11:52:23.281Z,30.65
2018-07-26T11:53:23.274Z,30.63
2018-07-26T11:54:23.269Z,31.51
2018-07-26T11:55:23.260Z,30.63
2018-07-26T11:56:23.263Z,30.84
2018-07-26T11:57:23.251Z,30.65
2018-07-26T11:58:23.242Z,30.94
2018-07-26T11:59:23.240Z,30.65
2018-07-26T12:00:23.233Z,30.65
2018-07-26T12:01:23.224Z,30.94
2018-07-26T12:02:23.282Z,30.63
2018-07-26T12:03:23.218Z,31.02
2018-07-26T12:04:23.205Z,31.04
2018-07-26T12:05:23.201Z,30.84
2018-07-26T12:06:23.194Z,30.07
2018-07-26T12:07:23.190Z,29.38
2018-07-26T12:08:23.188Z,29.68
2018-07-26T12:09:23.181Z,30.07
2018-07-26T12:10:23.174Z,30.07
2018-07-26T12:11:23.171Z,30.46
2018-07-26T12:12:23.160Z,30.17
2018-07-26T12:13:23.154Z,30.07
2018-07-26T12:14:23.227Z,29.97
2018-07-26T12:15:23.142Z,30.15
2018-07-26T12:16:23.137Z,29.76
2018-07-26T12:17:23.126Z,29.38
2018-07-26T12:18:23.122Z,30.17
2018-07-26T12:19:23.113Z,29.87
2018-07-26T12:20:23.115Z,29.48
2018-07-26T12:21:23.100Z,30.25
2018-07-26T12:22:23.100Z,29.57
2018-07-26T12:23:23.095Z,28.69
2018-07-26T12:24:23.095Z,28.30
2018-07-26T12:25:23.076Z,28.50
2018-07-26T12:26:23.082Z,28.59
2018-07-26T12:27:23.066Z,28.51
2018-07-26T12:28:23.060Z,28.61
2018-07-26T12:29:23.054Z,28.51
2018-07-26T12:30:23.053Z,28.41
2018-07-26T12:31:23.040Z,28.61
2018-07-26T12:32:23.040Z,29.10
2018-07-26T12:33:23.030Z,29.59
2018-07-26T12:34:23.026Z,29.30
2018-07-26T12:35:23.023Z,28.72
2018-07-26T12:36:23.012Z,28.31
2018-07-26T12:37:23.008Z,29.00
2018-07-26T12:38:23.001Z,28.92
2018-07-26T12:39:23.003Z,28.51
2018-07-26T12:40:22.994Z,28.91
2018-07-26T12:41:22.987Z,28.51
2018-07-26T12:42:22.977Z,28.51
2018-07-26T12:43:22.972Z,28.22
2018-07-26T12:44:22.967Z,28.51
2018-07-26T12:45:22.966Z,28.59
2018-07-26T12:46:22.958Z,28.50
2018-07-26T12:47:23.009Z,28.40
2018-07-26T12:48:22.965Z,28.51
2018-07-26T12:49:22.938Z,27.92
2018-07-26T12:50:22.931Z,28.31
2018-07-26T12:51:22.928Z,28.12
2018-07-26T12:52:22.922Z,28.02
2018-07-26T12:53:22.913Z,27.92
2018-07-26T12:54:22.909Z,27.53
2018-07-26T12:55:22.907Z,27.14
2018-07-26T12:56:22.897Z,27.23
2018-07-26T12:57:22.890Z,28.51
2018-07-26T12:58:22.888Z,28.31
2018-07-26T12:59:22.880Z,28.61
2018-07-26T13:00:22.882Z,28.41
2018-07-26T13:01:22.888Z,28.51
2018-07-26T13:02:22.861Z,28.02
2018-07-26T13:03:22.858Z,28.22
2018-07-26T13:04:22.850Z,28.41
2018-07-26T13:05:22.844Z,28.42
2018-07-26T13:06:22.840Z,28.52
2018-07-26T13:07:22.833Z,28.52
2018-07-26T13:08:22.836Z,27.94
2018-07-26T13:09:22.830Z,27.15
2018-07-26T13:10:22.819Z,28.24
2018-07-26T13:11:22.808Z,28.05
2018-07-26T13:12:22.849Z,27.36
2018-07-26T13:13:22.812Z,27.26
2018-07-26T13:14:22.800Z,26.77
2018-07-26T13:15:22.784Z,26.17
2018-07-26T13:16:22.783Z,27.44
2018-07-26T13:17:22.774Z,27.36